createdAt,value
2022-09-02T00:00:20.089Z,1020.2
2022-09-02T00:05:20.100Z,1020.2
2022-09-02T00:10:20.093Z,1020.2
2022-09-02T00:15:20.106Z,1020.1
2022-09-02T00:20:20.093Z,1020.1
2022-09-02T00:25:20.105Z,1020.2
2022-09-02T00:30:20.096Z,1020.2
2022-09-02T00:35:20.106Z,1020.2
2022-09-02T00:40:20.154Z,1020.2
2022-09-02T00:45:20.102Z,1020.2
2022-09-02T00:50:20.098Z,1020.1
2022-09-02T00:55:20.100Z,1020
2022-09-02T01:00:20.090Z,1020
2022-09-02T01:05:20.097Z,1020
2022-09-02T01:10:20.095Z,1020
2022-09-02T01:15:20.099Z,1020
2022-09-02T01:20:20.090Z,1020
2022-09-02T01:25:20.100Z,1020
2022-09-02T01:30:20.092Z,1019.9
2022-09-02T01:35:20.099Z,1019.9
2022-09-02T01:40:20.129Z,1020
2022-09-02T01:45:20.090Z,1019.9
2022-09-02T01:50:20.090Z,1019.9
2022-09-02T01:55:20.095Z,1019.9
2022-09-02T02:00:20.096Z,1019.8
2022-09-02T02:05:20.095Z,1019.9
2022-09-02T02:10:20.096Z,1019.9
2022-09-02T02:15:20.099Z,1019.9
2022-09-02T02:20:20.092Z,1019.9
2022-09-02T02:25:20.098Z,1019.9
2022-09-02T02:30:20.091Z,1019.8
2022-09-02T02:35:20.097Z,1019.8
2022-09-02T02:40:20.125Z,1019.8
2022-09-02T02:45:20.112Z,1019.8
2022-09-02T02:50:20.087Z,1019.9
2022-09-02T02:55:20.087Z,1019.8
2022-09-02T03:00:20.082Z,1019.8
2022-09-02T03:05:20.091Z,1019.8
2022-09-02T03:10:20.100Z,1019.8
2022-09-02T03:15:20.098Z,1019.8
2022-09-02T03:20:20.087Z,1019.7
2022-09-02T03:25:20.095Z,1019.7
2022-09-02T03:30:20.092Z,1019.6
2022-09-02T03:35:20.085Z,1019.7
2022-09-02T03:40:20.322Z,1019.6
2022-09-02T03:45:20.103Z,1019.6
2022-09-02T03:50:20.091Z,1019.5
2022-09-02T03:55:20.097Z,1019.5
2022-09-02T04:00:20.100Z,1019.5
2022-09-02T04:05:20.102Z,1019.5
2022-09-02T04:10:20.086Z,1019.5
2022-09-02T04:15:20.102Z,1019.5
2022-09-02T04:20:20.105Z,1019.5
2022-09-02T04:25:20.102Z,1019.5
2022-09-02T04:30:20.095Z,1019.6
2022-09-02T04:35:20.106Z,1019.6
2022-09-02T04:40:20.139Z,1019.6
2022-09-02T04:45:20.107Z,1019.5
2022-09-02T04:50:20.085Z,1019.6
2022-09-02T04:55:20.090Z,1019.6
2022-09-02T05:00:20.086Z,1019.6
2022-09-02T05:05:20.100Z,1019.7
2022-09-02T05:10:20.103Z,1019.8
2022-09-02T05:15:20.096Z,1019.7
2022-09-02T05:20:20.101Z,1019.7
2022-09-02T05:25:20.102Z,1019.8
2022-09-02T05:30:20.092Z,1019.7
2022-09-02T05:35:20.098Z,1019.7
2022-09-02T05:40:22.609Z,1019.8
2022-09-02T05:45:20.105Z,1019.8
2022-09-02T05:50:20.129Z,1019.7
2022-09-02T05:55:20.096Z,1019.9
2022-09-02T06:00:20.095Z,1019.8
2022-09-02T06:05:20.099Z,1019.9
2022-09-02T06:10:20.091Z,1019.9
2022-09-02T06:15:20.102Z,1019.9
2022-09-02T06:20:20.087Z,1020
2022-09-02T06:25:20.103Z,1019.9
2022-09-02T06:30:20.101Z,1020
2022-09-02T06:35:20.106Z,1019.9
2022-09-02T06:40:20.124Z,1019.9
2022-09-02T06:45:20.099Z,1019.9
2022-09-02T06:50:20.089Z,1019.9
2022-09-02T06:55:20.098Z,1019.9
2022-09-02T07:00:20.093Z,1019.9
2022-09-02T07:05:20.104Z,1019.9
2022-09-02T07:10:20.103Z,1019.8
2022-09-02T07:15:20.098Z,1019.9
2022-09-02T07:20:20.087Z,1019.9
2022-09-02T07:25:20.086Z,1019.9
2022-09-02T07:30:20.098Z,1019.9
2022-09-02T07:35:20.104Z,1019.9
2022-09-02T07:40:20.146Z,1019.8
2022-09-02T07:45:20.095Z,1019.8
2022-09-02T07:50:21.439Z,1019.7
2022-09-02T07:55:20.097Z,1019.6
2022-09-02T08:00:20.103Z,1019.6
2022-09-02T08:05:20.099Z,1019.5
2022-09-02T08:10:20.091Z,1019.5
2022-09-02T08:15:20.103Z,1019.4
2022-09-02T08:20:20.091Z,1019.4
2022-09-02T08:25:20.094Z,1019.4
2022-09-02T08:30:20.116Z,1019.4
2022-09-02T08:35:20.106Z,1019.3
2022-09-02T08:40:20.174Z,1019.3
2022-09-02T08:45:20.098Z,1019.2
2022-09-02T08:50:20.146Z,1019.2
2022-09-02T08:55:20.112Z,1019.1
2022-09-02T09:00:20.127Z,1019.1
2022-09-02T09:05:20.091Z,1018.9
2022-09-02T09:10:20.103Z,1018.9
2022-09-02T09:15:20.106Z,1018.8
2022-09-02T09:20:20.089Z,1018.8
2022-09-02T09:25:20.098Z,1018.8
2022-09-02T09:30:20.089Z,1018.7
2022-09-02T09:35:20.102Z,1018.7
2022-09-02T09:40:20.128Z,1018.6
2022-09-02T09:45:20.138Z,1018.6
2022-09-02T09:50:20.093Z,1018.5
2022-09-02T09:55:25.025Z,1018.3
2022-09-02T10:00:20.088Z,1018.1
2022-09-02T10:05:20.091Z,1018.2
2022-09-02T10:10:20.113Z,1018.1
2022-09-02T10:15:20.089Z,1018
2022-09-02T10:20:20.089Z,1017.9
2022-09-02T10:25:20.170Z,1017.8
2022-09-02T10:30:20.083Z,1017.8
2022-09-02T10:35:20.100Z,1017.9
2022-09-02T10:40:20.181Z,1017.9
2022-09-02T10:45:20.106Z,1017.9
2022-09-02T10:50:20.096Z,1017.7
2022-09-02T10:55:20.093Z,1017.7
2022-09-02T11:00:20.094Z,1017.6
2022-09-02T11:05:20.097Z,1017.5
2022-09-02T11:10:20.090Z,1017.5
2022-09-02T11:15:20.098Z,1017.5
2022-09-02T11:20:20.095Z,1017.5
2022-09-02T11:25:20.099Z,1017.3
2022-09-02T11:30:20.094Z,1017.3
2022-09-02T11:35:20.092Z,1017.3
2022-09-02T11:40:35.980Z,1017.3
2022-09-02T11:45:20.151Z,1017.2
2022-09-02T11:50:20.102Z,1017.2
2022-09-02T11:55:20.115Z,1017.2
2022-09-02T12:00:20.124Z,1017.1
2022-09-02T12:05:20.248Z,1017
2022-09-02T12:10:20.104Z,1017
2022-09-02T12:15:20.094Z,1016.8
2022-09-02T12:20:20.093Z,1016.7
2022-09-02T12:25:20.101Z,1016.8
2022-09-02T12:30:20.102Z,1016.7
2022-09-02T12:35:20.115Z,1016.6
2022-09-02T12:40:20.216Z,1016.7
2022-09-02T12:45:20.100Z,1016.5
2022-09-02T12:50:20.111Z,1016.6
2022-09-02T12:55:20.096Z,1016.4
2022-09-02T13:00:20.092Z,1016.4
2022-09-02T13:05:20.099Z,1016.4
2022-09-02T13:10:20.077Z,1016.4
2022-09-02T13:15:23.113Z,1016.3
2022-09-02T13:20:20.267Z,1016.4
2022-09-02T13:25:20.272Z,1016.3
2022-09-02T13:30:20.105Z,1016.3
2022-09-02T13:35:23.888Z,1016.2
2022-09-02T13:40:20.094Z,1016.1
2022-09-02T13:45:20.123Z,1016.2
2022-09-02T13:50:20.096Z,1016.2
2022-09-02T13:55:20.108Z,1016.2
2022-09-02T14:00:20.187Z,1016.1
2022-09-02T14:05:20.101Z,1016.1
2022-09-02T14:10:20.085Z,1016.1
2022-09-02T14:15:20.102Z,1015.8
2022-09-02T14:20:20.088Z,1015.9
2022-09-02T14:25:22.236Z,1015.8
2022-09-02T14:30:20.093Z,1015.7
2022-09-02T14:35:20.103Z,1015.7
2022-09-02T14:40:20.096Z,1015.5
2022-09-02T14:45:20.090Z,1015.6
2022-09-02T14:50:20.092Z,1015.5
2022-09-02T14:55:20.096Z,1015.5
2022-09-02T15:00:20.092Z,1015.6
2022-09-02T15:05:20.212Z,1015.4
2022-09-02T15:10:20.104Z,1015.5
2022-09-02T15:15:20.106Z,1015.5
2022-09-02T15:20:20.094Z,1015.4
2022-09-02T15:25:20.103Z,1015.3
2022-09-02T15:30:20.097Z,1015.3
2022-09-02T15:35:20.109Z,1015.1
2022-09-02T15:40:20.091Z,1015.1
2022-09-02T15:45:20.092Z,1015.1
2022-09-02T15:50:20.588Z,1015.1
2022-09-02T15:55:22.708Z,1015
2022-09-02T16:00:20.102Z,1014.9
2022-09-02T16:05:20.099Z,1015
2022-09-02T16:10:20.092Z,1015
2022-09-02T16:15:20.093Z,1015
2022-09-02T16:20:21.302Z,1015
2022-09-02T16:25:20.136Z,1015
2022-09-02T16:30:20.093Z,1014.9
2022-09-02T16:35:20.110Z,1014.9
2022-09-02T16:40:20.101Z,1014.8
2022-09-02T16:45:20.095Z,1014.9
2022-09-02T16:50:20.093Z,1014.8
2022-09-02T16:55:20.099Z,1014.9
2022-09-02T17:00:20.099Z,1014.8
2022-09-02T17:05:20.092Z,1014.8
2022-09-02T17:10:20.092Z,1014.8
2022-09-02T17:15:20.096Z,1014.7
2022-09-02T17:20:20.095Z,1014.8
2022-09-02T17:25:20.096Z,1014.8
2022-09-02T17:30:20.100Z,1014.9
2022-09-02T17:35:20.088Z,1014.9
2022-09-02T17:40:20.095Z,1014.9
2022-09-02T17:45:20.100Z,1014.9
2022-09-02T17:50:20.115Z,1014.9
2022-09-02T17:55:20.100Z,1015.1
2022-09-02T18:00:20.088Z,1015.1
2022-09-02T18:05:20.093Z,1015.1
2022-09-02T18:10:20.083Z,1015.1
2022-09-02T18:15:20.100Z,1015.1
2022-09-02T18:20:20.093Z,1015.1
2022-09-02T18:25:20.097Z,1015.2
2022-09-02T18:30:21.223Z,1015.2
2022-09-02T18:35:20.099Z,1015.2
2022-09-02T18:40:20.093Z,1015.2
2022-09-02T18:45:21.894Z,1015.1
2022-09-02T18:50:38.484Z,1015.2
2022-09-02T18:55:20.105Z,1015.2
2022-09-02T19:00:20.088Z,1015.3
2022-09-02T19:05:20.118Z,1015.3
2022-09-02T19:10:20.096Z,1015.3
2022-09-02T19:15:20.097Z,1015.4
2022-09-02T19:20:20.091Z,1015.5
2022-09-02T19:25:20.100Z,1015.5
2022-09-02T19:30:20.109Z,1015.4
2022-09-02T19:35:20.096Z,1015.3
2022-09-02T19:40:20.104Z,1015.4
2022-09-02T19:45:20.100Z,1015.4
2022-09-02T19:50:20.092Z,1015.4
2022-09-02T19:55:20.118Z,1015.5
2022-09-02T20:00:20.093Z,1015.5
2022-09-02T20:05:20.099Z,1015.5
2022-09-02T20:10:20.348Z,1015.5
2022-09-02T20:15:20.105Z,1015.6
2022-09-02T20:20:20.096Z,1015.6
2022-09-02T20:25:20.111Z,1015.6
2022-09-02T20:30:20.098Z,1015.8
2022-09-02T20:35:20.095Z,1015.8
2022-09-02T20:40:20.102Z,1015.8
2022-09-02T20:45:20.099Z,1015.8
2022-09-02T20:50:20.105Z,1015.8
2022-09-02T20:55:20.099Z,1015.7
2022-09-02T21:00:20.088Z,1015.7
2022-09-02T21:05:22.748Z,1015.7
2022-09-02T21:10:20.088Z,1015.8
2022-09-02T21:15:20.099Z,1015.8
2022-09-02T21:20:20.091Z,1015.8
2022-09-02T21:25:20.098Z,1015.7
2022-09-02T21:30:20.088Z,1015.8
2022-09-02T21:35:20.092Z,1015.6
2022-09-02T21:40:20.087Z,1015.6
2022-09-02T21:45:20.111Z,1015.7
2022-09-02T21:50:22.317Z,1015.7
2022-09-02T21:55:20.094Z,1015.7
2022-09-02T22:00:20.093Z,1015.8
2022-09-02T22:05:20.092Z,1015.8
2022-09-02T22:10:20.082Z,1015.8
2022-09-02T22:15:20.087Z,1015.7
2022-09-02T22:20:20.089Z,1015.7
2022-09-02T22:25:20.095Z,1015.8
2022-09-02T22:30:20.092Z,1015.8
2022-09-02T22:35:20.094Z,1015.7
2022-09-02T22:40:20.089Z,1015.8
2022-09-02T22:45:20.097Z,1015.8
2022-09-02T22:50:20.093Z,1015.7
2022-09-02T22:55:20.098Z,1015.7
2022-09-02T23:00:20.087Z,1015.7
2022-09-02T23:05:20.097Z,1015.7
2022-09-02T23:10:20.089Z,1015.7
2022-09-02T23:15:20.099Z,1015.8
2022-09-02T23:20:20.084Z,1015.7
2022-09-02T23:25:20.091Z,1015.7
2022-09-02T23:30:20.096Z,1015.7
2022-09-02T23:35:20.089Z,1015.7
2022-09-02T23:40:20.091Z,1015.7
2022-09-02T23:45:20.102Z,1015.7
2022-09-02T23:50:20.102Z,1015.8
2022-09-02T23:55:20.120Z,1015.7
